Portada
METAR-TAF:

METAR-TAF

Aeroports :

Cherbourg, França

latitud: 49-39N, longitud: 001-28W, altitud: 138 m

Observació

L'informe es va fer fa 20 minuts, a les 22:30 UTC
Vent 4 kt del Est
Temperatura 11°C
Humitat 94%
Pressió 1021 hPa
Visibilitat 10 km o més
sense núvols per sota de 1500 mi sense presència de cumulonimbus.

METAR: LFRC 152230Z AUTO 09004KT CAVOK 11/10 Q1021

Hora: 00:50 (22:50 UTC)

Pronòstic

L'informe es va fer fa 8 hores i 50 minuts, a les 14:00 UTC
Pronòstic vàlid del 15 a les 15 UTC al 15 a les 24 UTC
Vent 10 kt del Nord-Est
Visibilitat 10 km o més
Escasses núvols a una alçada de 2500 ft
Evolucionant progressivament
l' 15 a les 17 UTC al 15 a les 19 UTC
Vent 5 kt del Est/Nord-Est
Evolucionant progressivament
l' 15 a les 22 UTC al 15 a les 24 UTC
Visibilitat: 4000 m
boirina

TAF: LFRC 151400Z 1515/1524 05010KT 9999 FEW025 BECMG 1517/1519 07005KT BECMG 1522/1524 4000 BR

Observacions i pronòstics meteorològics de més de 4000 aeroports (METAR i TAF).

Les estacions disponibles són els punts grocs i vermells al mapa.

Posi el ratolí al punt desitjat per veure el nom de l'estació.

Feu clic per veure les observacions i els pronòstics meteorològics.

Per canviar el mapa: feu clic els botons verds amb una creu de color negre per apropar; al botó verd amb un guió per allunyar la imatge; o en les fletxes verdes per a mapes adjacents.


METAR-TAF: